sensor_id;sensor_type;location;lat;lon;timestamp;P1;durP1;ratioP1;P2;durP2;ratioP2
18592;SDS011;9426;54.118;17.948;2023-04-01T00:01:57;26.10;;;12.97;;
18592;SDS011;9426;54.118;17.948;2023-04-01T00:07:42;26.50;;;12.60;;
18592;SDS011;9426;54.118;17.948;2023-04-01T00:13:05;29.23;;;13.10;;
18592;SDS011;9426;54.118;17.948;2023-04-01T00:18:29;26.93;;;12.97;;
18592;SDS011;9426;54.118;17.948;2023-04-01T00:23:54;36.30;;;15.67;;
18592;SDS011;9426;54.118;17.948;2023-04-01T00:29:18;37.90;;;16.37;;
18592;SDS011;9426;54.118;17.948;2023-04-01T00:34:41;30.87;;;14.43;;
18592;SDS011;9426;54.118;17.948;2023-04-01T00:40:07;30.50;;;14.47;;
18592;SDS011;9426;54.118;17.948;2023-04-01T00:45:46;32.77;;;14.43;;
18592;SDS011;9426;54.118;17.948;2023-04-01T00:51:11;30.20;;;13.70;;
18592;SDS011;9426;54.118;17.948;2023-04-01T00:56:40;34.97;;;14.93;;
18592;SDS011;9426;54.118;17.948;2023-04-01T01:02:10;25.70;;;12.80;;
18592;SDS011;9426;54.118;17.948;2023-04-01T01:07:36;26.03;;;11.20;;
18592;SDS011;9426;54.118;17.948;2023-04-01T01:13:08;19.03;;;9.50;;
18592;SDS011;9426;54.118;17.948;2023-04-01T01:18:36;13.73;;;6.10;;
18592;SDS011;9426;54.118;17.948;2023-04-01T01:24:20;9.43;;;5.50;;
18592;SDS011;9426;54.118;17.948;2023-04-01T01:29:57;9.33;;;5.43;;
18592;SDS011;9426;54.118;17.948;2023-04-01T01:35:35;12.87;;;6.40;;
18592;SDS011;9426;54.118;17.948;2023-04-01T01:41:08;15.57;;;8.37;;
18592;SDS011;9426;54.118;17.948;2023-04-01T01:46:33;17.93;;;9.10;;
18592;SDS011;9426;54.118;17.948;2023-04-01T01:52:00;25.00;;;11.43;;
18592;SDS011;9426;54.118;17.948;2023-04-01T01:57:24;22.03;;;11.33;;
18592;SDS011;9426;54.118;17.948;2023-04-01T02:02:53;21.87;;;10.80;;
18592;SDS011;9426;54.118;17.948;2023-04-01T02:08:20;19.67;;;10.60;;
18592;SDS011;9426;54.118;17.948;2023-04-01T02:13:48;17.50;;;9.77;;
18592;SDS011;9426;54.118;17.948;2023-04-01T02:19:15;17.67;;;9.67;;
18592;SDS011;9426;54.118;17.948;2023-04-01T02:24:46;13.57;;;8.03;;
18592;SDS011;9426;54.118;17.948;2023-04-01T02:30:12;10.30;;;5.73;;
18592;SDS011;9426;54.118;17.948;2023-04-01T02:35:37;8.70;;;4.50;;
18592;SDS011;9426;54.118;17.948;2023-04-01T02:41:03;7.37;;;4.63;;
18592;SDS011;9426;54.118;17.948;2023-04-01T02:46:27;8.23;;;3.90;;
18592;SDS011;9426;54.118;17.948;2023-04-01T02:51:51;6.50;;;4.00;;
18592;SDS011;9426;54.118;17.948;2023-04-01T02:57:15;6.43;;;4.33;;
18592;SDS011;9426;54.118;17.948;2023-04-01T03:02:39;8.27;;;4.17;;
18592;SDS011;9426;54.118;17.948;2023-04-01T03:08:02;6.67;;;4.50;;
18592;SDS011;9426;54.118;17.948;2023-04-01T03:13:28;6.37;;;4.53;;
18592;SDS011;9426;54.118;17.948;2023-04-01T03:18:52;6.87;;;4.70;;
18592;SDS011;9426;54.118;17.948;2023-04-01T03:24:18;5.90;;;4.00;;
18592;SDS011;9426;54.118;17.948;2023-04-01T03:29:43;7.50;;;4.00;;
18592;SDS011;9426;54.118;17.948;2023-04-01T03:35:07;4.80;;;3.30;;
18592;SDS011;9426;54.118;17.948;2023-04-01T03:40:32;4.70;;;3.53;;
18592;SDS011;9426;54.118;17.948;2023-04-01T03:46:01;5.93;;;3.73;;
18592;SDS011;9426;54.118;17.948;2023-04-01T03:51:25;7.63;;;3.50;;
18592;SDS011;9426;54.118;17.948;2023-04-01T03:56:49;5.33;;;3.77;;
18592;SDS011;9426;54.118;17.948;2023-04-01T04:02:15;5.97;;;4.27;;
18592;SDS011;9426;54.118;17.948;2023-04-01T04:07:39;7.13;;;4.63;;
18592;SDS011;9426;54.118;17.948;2023-04-01T04:13:02;6.00;;;4.20;;
18592;SDS011;9426;54.118;17.948;2023-04-01T04:18:33;5.37;;;4.27;;
18592;SDS011;9426;54.118;17.948;2023-04-01T04:23:57;5.27;;;3.90;;
18592;SDS011;9426;54.118;17.948;2023-04-01T04:29:26;8.27;;;5.23;;
18592;SDS011;9426;54.118;17.948;2023-04-01T04:34:52;6.60;;;4.03;;
18592;SDS011;9426;54.118;17.948;2023-04-01T04:40:15;8.37;;;4.80;;
18592;SDS011;9426;54.118;17.948;2023-04-01T04:45:39;7.97;;;4.60;;
18592;SDS011;9426;54.118;17.948;2023-04-01T04:51:05;8.40;;;4.73;;
18592;SDS011;9426;54.118;17.948;2023-04-01T04:56:28;10.20;;;5.20;;
18592;SDS011;9426;54.118;17.948;2023-04-01T05:02:00;7.87;;;4.80;;
18592;SDS011;9426;54.118;17.948;2023-04-01T05:07:26;16.93;;;5.63;;
18592;SDS011;9426;54.118;17.948;2023-04-01T05:12:49;8.27;;;5.30;;
18592;SDS011;9426;54.118;17.948;2023-04-01T05:18:15;8.67;;;5.50;;
18592;SDS011;9426;54.118;17.948;2023-04-01T05:23:40;10.07;;;6.40;;
18592;SDS011;9426;54.118;17.948;2023-04-01T05:29:04;10.23;;;6.17;;
18592;SDS011;9426;54.118;17.948;2023-04-01T05:34:29;9.07;;;5.37;;
18592;SDS011;9426;54.118;17.948;2023-04-01T05:39:54;10.07;;;6.27;;
18592;SDS011;9426;54.118;17.948;2023-04-01T05:45:20;8.50;;;5.80;;
18592;SDS011;9426;54.118;17.948;2023-04-01T05:51:11;9.13;;;5.20;;
18592;SDS011;9426;54.118;17.948;2023-04-01T05:56:37;8.57;;;5.20;;
18592;SDS011;9426;54.118;17.948;2023-04-01T06:02:01;8.93;;;5.03;;
18592;SDS011;9426;54.118;17.948;2023-04-01T06:07:25;8.10;;;5.27;;
18592;SDS011;9426;54.118;17.948;2023-04-01T06:12:58;9.13;;;5.30;;
18592;SDS011;9426;54.118;17.948;2023-04-01T06:18:44;12.30;;;5.33;;
18592;SDS011;9426;54.118;17.948;2023-04-01T06:24:41;7.77;;;4.83;;
18592;SDS011;9426;54.118;17.948;2023-04-01T06:30:27;7.80;;;4.53;;
18592;SDS011;9426;54.118;17.948;2023-04-01T06:36:06;6.83;;;4.67;;
18592;SDS011;9426;54.118;17.948;2023-04-01T06:47:45;8.00;;;5.20;;
18592;SDS011;9426;54.118;17.948;2023-04-01T06:53:28;8.63;;;4.37;;
18592;SDS011;9426;54.118;17.948;2023-04-01T06:59:35;7.53;;;4.03;;
18592;SDS011;9426;54.118;17.948;2023-04-01T07:05:02;7.87;;;3.57;;
18592;SDS011;9426;54.118;17.948;2023-04-01T07:10:30;6.37;;;3.40;;
18592;SDS011;9426;54.118;17.948;2023-04-01T07:16:31;4.27;;;2.90;;
18592;SDS011;9426;54.118;17.948;2023-04-01T07:22:02;4.90;;;3.00;;
18592;SDS011;9426;54.118;17.948;2023-04-01T07:27:47;4.80;;;2.60;;
18592;SDS011;9426;54.118;17.948;2023-04-01T07:33:13;4.63;;;2.57;;
18592;SDS011;9426;54.118;17.948;2023-04-01T07:38:48;4.43;;;2.90;;
18592;SDS011;9426;54.118;17.948;2023-04-01T07:44:52;3.73;;;2.30;;
18592;SDS011;9426;54.118;17.948;2023-04-01T07:50:25;4.57;;;2.23;;
18592;SDS011;9426;54.118;17.948;2023-04-01T07:55:53;3.20;;;2.40;;
18592;SDS011;9426;54.118;17.948;2023-04-01T08:01:28;3.60;;;2.40;;
18592;SDS011;9426;54.118;17.948;2023-04-01T08:06:58;4.30;;;2.90;;
18592;SDS011;9426;54.118;17.948;2023-04-01T08:12:35;4.10;;;2.73;;
18592;SDS011;9426;54.118;17.948;2023-04-01T08:18:44;4.50;;;2.83;;
18592;SDS011;9426;54.118;17.948;2023-04-01T08:24:18;4.03;;;2.77;;
18592;SDS011;9426;54.118;17.948;2023-04-01T08:29:53;3.57;;;2.60;;
18592;SDS011;9426;54.118;17.948;2023-04-01T08:35:24;3.93;;;2.83;;
18592;SDS011;9426;54.118;17.948;2023-04-01T08:41:06;3.10;;;2.47;;
18592;SDS011;9426;54.118;17.948;2023-04-01T08:47:15;4.50;;;2.93;;
18592;SDS011;9426;54.118;17.948;2023-04-01T08:52:48;4.03;;;2.90;;
18592;SDS011;9426;54.118;17.948;2023-04-01T08:58:35;5.90;;;3.50;;
18592;SDS011;9426;54.118;17.948;2023-04-01T09:04:33;4.57;;;2.90;;
18592;SDS011;9426;54.118;17.948;2023-04-01T09:10:18;4.80;;;2.67;;
18592;SDS011;9426;54.118;17.948;2023-04-01T09:22:08;5.37;;;3.20;;
18592;SDS011;9426;54.118;17.948;2023-04-01T09:27:43;4.63;;;2.90;;
18592;SDS011;9426;54.118;17.948;2023-04-01T09:33:17;4.87;;;2.77;;
18592;SDS011;9426;54.118;17.948;2023-04-01T09:39:22;5.40;;;3.00;;
18592;SDS011;9426;54.118;17.948;2023-04-01T09:45:00;7.63;;;3.67;;
18592;SDS011;9426;54.118;17.948;2023-04-01T09:50:30;7.60;;;4.00;;
18592;SDS011;9426;54.118;17.948;2023-04-01T10:14:31;4.43;;;3.00;;
18592;SDS011;9426;54.118;17.948;2023-04-01T10:26:16;4.03;;;2.20;;
18592;SDS011;9426;54.118;17.948;2023-04-01T10:38:31;4.30;;;2.50;;
18592;SDS011;9426;54.118;17.948;2023-04-01T10:50:38;3.10;;;2.00;;
18592;SDS011;9426;54.118;17.948;2023-04-01T10:56:34;2.33;;;1.67;;
18592;SDS011;9426;54.118;17.948;2023-04-01T11:09:08;2.27;;;1.37;;
18592;SDS011;9426;54.118;17.948;2023-04-01T11:26:52;4.03;;;2.10;;
18592;SDS011;9426;54.118;17.948;2023-04-01T11:32:39;3.10;;;1.70;;
18592;SDS011;9426;54.118;17.948;2023-04-01T11:38:14;3.37;;;1.80;;
18592;SDS011;9426;54.118;17.948;2023-04-01T11:43:49;5.30;;;1.63;;
18592;SDS011;9426;54.118;17.948;2023-04-01T11:49:47;3.33;;;1.73;;
18592;SDS011;9426;54.118;17.948;2023-04-01T11:55:37;3.33;;;1.80;;
18592;SDS011;9426;54.118;17.948;2023-04-01T12:01:21;2.87;;;1.80;;
18592;SDS011;9426;54.118;17.948;2023-04-01T12:06:57;4.37;;;1.90;;
18592;SDS011;9426;54.118;17.948;2023-04-01T12:12:31;3.17;;;2.00;;
18592;SDS011;9426;54.118;17.948;2023-04-01T12:18:09;3.63;;;1.90;;
18592;SDS011;9426;54.118;17.948;2023-04-01T12:23:41;2.43;;;1.53;;
18592;SDS011;9426;54.118;17.948;2023-04-01T12:35:18;5.10;;;2.70;;
18592;SDS011;9426;54.118;17.948;2023-04-01T12:40:47;3.27;;;1.70;;
18592;SDS011;9426;54.118;17.948;2023-04-01T12:46:23;2.83;;;1.83;;
18592;SDS011;9426;54.118;17.948;2023-04-01T12:51:57;3.77;;;1.77;;
18592;SDS011;9426;54.118;17.948;2023-04-01T12:57:41;4.93;;;2.13;;
18592;SDS011;9426;54.118;17.948;2023-04-01T13:03:31;4.57;;;2.10;;
18592;SDS011;9426;54.118;17.948;2023-04-01T13:09:26;3.13;;;2.27;;
18592;SDS011;9426;54.118;17.948;2023-04-01T13:20:49;3.60;;;2.00;;
18592;SDS011;9426;54.118;17.948;2023-04-01T13:26:24;3.30;;;1.90;;
18592;SDS011;9426;54.118;17.948;2023-04-01T13:31:53;3.90;;;2.10;;
18592;SDS011;9426;54.118;17.948;2023-04-01T13:37:27;3.70;;;2.37;;
18592;SDS011;9426;54.118;17.948;2023-04-01T13:43:04;5.50;;;2.63;;
18592;SDS011;9426;54.118;17.948;2023-04-01T13:48:35;6.40;;;2.50;;
18592;SDS011;9426;54.118;17.948;2023-04-01T13:54:24;3.77;;;2.47;;
18592;SDS011;9426;54.118;17.948;2023-04-01T14:00:17;4.13;;;1.97;;
18592;SDS011;9426;54.118;17.948;2023-04-01T14:05:50;3.57;;;2.10;;
18592;SDS011;9426;54.118;17.948;2023-04-01T14:11:34;3.30;;;2.30;;
18592;SDS011;9426;54.118;17.948;2023-04-01T14:17:09;3.10;;;2.20;;
18592;SDS011;9426;54.118;17.948;2023-04-01T14:22:46;3.43;;;2.20;;
18592;SDS011;9426;54.118;17.948;2023-04-01T14:28:22;4.03;;;2.30;;
18592;SDS011;9426;54.118;17.948;2023-04-01T14:33:57;10.00;;;4.60;;
18592;SDS011;9426;54.118;17.948;2023-04-01T14:39:42;3.90;;;2.30;;
18592;SDS011;9426;54.118;17.948;2023-04-01T14:45:19;3.27;;;2.13;;
18592;SDS011;9426;54.118;17.948;2023-04-01T14:51:02;3.57;;;2.10;;
18592;SDS011;9426;54.118;17.948;2023-04-01T14:56:36;5.47;;;3.10;;
18592;SDS011;9426;54.118;17.948;2023-04-01T15:02:08;5.23;;;3.07;;
18592;SDS011;9426;54.118;17.948;2023-04-01T15:07:53;8.30;;;4.10;;
18592;SDS011;9426;54.118;17.948;2023-04-01T15:13:33;9.10;;;4.07;;
18592;SDS011;9426;54.118;17.948;2023-04-01T15:19:19;10.33;;;3.90;;
18592;SDS011;9426;54.118;17.948;2023-04-01T15:24:52;8.03;;;4.20;;
18592;SDS011;9426;54.118;17.948;2023-04-01T15:30:33;15.67;;;7.23;;
18592;SDS011;9426;54.118;17.948;2023-04-01T15:36:02;16.13;;;6.87;;
18592;SDS011;9426;54.118;17.948;2023-04-01T15:41:39;11.50;;;6.73;;
18592;SDS011;9426;54.118;17.948;2023-04-01T15:47:25;14.63;;;6.73;;
18592;SDS011;9426;54.118;17.948;2023-04-01T15:53:11;16.33;;;7.13;;
18592;SDS011;9426;54.118;17.948;2023-04-01T15:58:51;12.90;;;6.40;;
18592;SDS011;9426;54.118;17.948;2023-04-01T16:04:38;12.70;;;6.33;;
18592;SDS011;9426;54.118;17.948;2023-04-01T16:10:17;18.13;;;7.73;;
18592;SDS011;9426;54.118;17.948;2023-04-01T16:15:57;20.80;;;6.93;;
18592;SDS011;9426;54.118;17.948;2023-04-01T16:21:33;19.53;;;7.07;;
18592;SDS011;9426;54.118;17.948;2023-04-01T16:27:02;19.20;;;6.80;;
18592;SDS011;9426;54.118;17.948;2023-04-01T16:32:38;15.87;;;6.70;;
18592;SDS011;9426;54.118;17.948;2023-04-01T16:38:08;18.33;;;7.47;;
18592;SDS011;9426;54.118;17.948;2023-04-01T16:43:38;15.80;;;6.63;;
18592;SDS011;9426;54.118;17.948;2023-04-01T16:55:01;16.03;;;7.03;;
18592;SDS011;9426;54.118;17.948;2023-04-01T17:00:38;9.67;;;4.97;;
18592;SDS011;9426;54.118;17.948;2023-04-01T17:06:12;13.23;;;5.83;;
18592;SDS011;9426;54.118;17.948;2023-04-01T17:11:49;13.40;;;5.77;;
18592;SDS011;9426;54.118;17.948;2023-04-01T17:17:24;14.63;;;6.00;;
18592;SDS011;9426;54.118;17.948;2023-04-01T17:23:08;17.67;;;7.20;;
18592;SDS011;9426;54.118;17.948;2023-04-01T17:28:41;16.30;;;7.07;;
18592;SDS011;9426;54.118;17.948;2023-04-01T17:34:13;8.73;;;4.50;;
18592;SDS011;9426;54.118;17.948;2023-04-01T17:39:51;17.37;;;8.07;;
18592;SDS011;9426;54.118;17.948;2023-04-01T17:45:21;12.47;;;5.17;;
18592;SDS011;9426;54.118;17.948;2023-04-01T17:50:51;9.50;;;4.50;;
18592;SDS011;9426;54.118;17.948;2023-04-01T17:56:30;17.67;;;7.07;;
18592;SDS011;9426;54.118;17.948;2023-04-01T18:02:04;13.70;;;6.07;;
18592;SDS011;9426;54.118;17.948;2023-04-01T18:07:48;11.30;;;5.33;;
18592;SDS011;9426;54.118;17.948;2023-04-01T18:19:32;12.87;;;4.63;;
18592;SDS011;9426;54.118;17.948;2023-04-01T18:25:12;8.67;;;4.73;;
18592;SDS011;9426;54.118;17.948;2023-04-01T18:30:40;16.60;;;5.20;;
18592;SDS011;9426;54.118;17.948;2023-04-01T18:36:10;13.13;;;4.60;;
18592;SDS011;9426;54.118;17.948;2023-04-01T18:41:43;12.97;;;5.67;;
18592;SDS011;9426;54.118;17.948;2023-04-01T18:47:24;13.13;;;5.67;;
18592;SDS011;9426;54.118;17.948;2023-04-01T18:52:59;12.23;;;5.90;;
18592;SDS011;9426;54.118;17.948;2023-04-01T18:58:42;15.40;;;5.40;;
18592;SDS011;9426;54.118;17.948;2023-04-01T19:04:14;13.00;;;5.50;;
18592;SDS011;9426;54.118;17.948;2023-04-01T19:09:45;14.37;;;5.20;;
18592;SDS011;9426;54.118;17.948;2023-04-01T19:15:17;13.30;;;5.27;;
18592;SDS011;9426;54.118;17.948;2023-04-01T19:20:51;10.17;;;5.00;;
18592;SDS011;9426;54.118;17.948;2023-04-01T19:26:22;11.57;;;4.70;;
18592;SDS011;9426;54.118;17.948;2023-04-01T19:31:51;15.80;;;4.67;;
18592;SDS011;9426;54.118;17.948;2023-04-01T19:37:24;13.47;;;4.90;;
18592;SDS011;9426;54.118;17.948;2023-04-01T19:42:57;10.20;;;4.20;;
18592;SDS011;9426;54.118;17.948;2023-04-01T19:48:33;11.87;;;4.87;;
18592;SDS011;9426;54.118;17.948;2023-04-01T19:54:13;14.43;;;5.60;;
18592;SDS011;9426;54.118;17.948;2023-04-01T19:59:49;8.97;;;4.47;;
18592;SDS011;9426;54.118;17.948;2023-04-01T20:05:22;12.83;;;5.13;;
18592;SDS011;9426;54.118;17.948;2023-04-01T20:17:07;16.87;;;5.70;;
18592;SDS011;9426;54.118;17.948;2023-04-01T20:22:52;10.43;;;4.73;;
18592;SDS011;9426;54.118;17.948;2023-04-01T20:28:25;10.43;;;4.17;;
18592;SDS011;9426;54.118;17.948;2023-04-01T20:45:43;9.13;;;4.57;;
18592;SDS011;9426;54.118;17.948;2023-04-01T20:51:12;11.33;;;4.50;;
18592;SDS011;9426;54.118;17.948;2023-04-01T20:56:42;13.87;;;4.87;;
18592;SDS011;9426;54.118;17.948;2023-04-01T21:02:21;15.67;;;4.87;;
18592;SDS011;9426;54.118;17.948;2023-04-01T21:07:54;7.73;;;4.10;;
18592;SDS011;9426;54.118;17.948;2023-04-01T21:13:28;8.93;;;3.60;;
18592;SDS011;9426;54.118;17.948;2023-04-01T21:19:03;10.90;;;3.53;;
18592;SDS011;9426;54.118;17.948;2023-04-01T21:24:38;8.80;;;3.93;;
18592;SDS011;9426;54.118;17.948;2023-04-01T21:30:35;6.83;;;3.30;;
18592;SDS011;9426;54.118;17.948;2023-04-01T21:36:19;8.27;;;3.47;;
18592;SDS011;9426;54.118;17.948;2023-04-01T21:42:02;10.53;;;2.73;;
18592;SDS011;9426;54.118;17.948;2023-04-01T21:54:20;7.70;;;3.20;;
18592;SDS011;9426;54.118;17.948;2023-04-01T22:05:45;3.93;;;2.40;;
18592;SDS011;9426;54.118;17.948;2023-04-01T22:11:15;4.03;;;2.30;;
18592;SDS011;9426;54.118;17.948;2023-04-01T22:16:47;4.73;;;2.20;;
18592;SDS011;9426;54.118;17.948;2023-04-01T22:22:18;5.17;;;2.20;;
18592;SDS011;9426;54.118;17.948;2023-04-01T22:27:45;3.13;;;1.97;;
18592;SDS011;9426;54.118;17.948;2023-04-01T22:33:14;4.67;;;2.03;;
18592;SDS011;9426;54.118;17.948;2023-04-01T22:38:49;4.57;;;2.43;;
18592;SDS011;9426;54.118;17.948;2023-04-01T22:44:38;3.27;;;2.30;;
18592;SDS011;9426;54.118;17.948;2023-04-01T22:50:14;4.60;;;2.60;;
18592;SDS011;9426;54.118;17.948;2023-04-01T22:55:45;3.50;;;2.33;;
18592;SDS011;9426;54.118;17.948;2023-04-01T23:01:12;2.90;;;2.07;;
18592;SDS011;9426;54.118;17.948;2023-04-01T23:06:43;6.60;;;2.50;;
18592;SDS011;9426;54.118;17.948;2023-04-01T23:12:12;4.03;;;2.30;;
18592;SDS011;9426;54.118;17.948;2023-04-01T23:17:47;5.80;;;2.43;;
18592;SDS011;9426;54.118;17.948;2023-04-01T23:23:25;8.00;;;2.77;;
18592;SDS011;9426;54.118;17.948;2023-04-01T23:28:56;5.03;;;2.80;;
18592;SDS011;9426;54.118;17.948;2023-04-01T23:34:22;6.10;;;2.63;;
18592;SDS011;9426;54.118;17.948;2023-04-01T23:39:51;8.60;;;2.80;;
18592;SDS011;9426;54.118;17.948;2023-04-01T23:45:17;5.10;;;2.50;;
18592;SDS011;9426;54.118;17.948;2023-04-01T23:50:42;6.40;;;2.60;;
18592;SDS011;9426;54.118;17.948;2023-04-01T23:56:07;4.20;;;2.47;;
